createdAt,value
2018-11-23T00:01:09.627Z,211.90
2018-11-23T00:03:39.919Z,210.97
2018-11-23T00:06:09.914Z,220.80
2018-11-23T00:08:39.992Z,207.63
2018-11-23T00:11:10.516Z,210.50
2018-11-23T00:13:40.222Z,212.47
2018-11-23T00:16:09.721Z,213.67
2018-11-23T00:18:39.673Z,207.80
2018-11-23T00:21:10.077Z,205.17
2018-11-23T00:23:40.402Z,210.60
2018-11-23T00:26:10.323Z,219.00
2018-11-23T00:28:40.323Z,193.03
2018-11-23T00:31:09.810Z,189.13
2018-11-23T00:33:39.223Z,185.93
2018-11-23T00:36:08.719Z,184.77
2018-11-23T00:38:38.550Z,186.90
2018-11-23T00:41:07.958Z,199.10
2018-11-23T00:43:38.161Z,192.83
2018-11-23T00:46:08.490Z,187.13
2018-11-23T00:48:38.595Z,191.03
2018-11-23T00:51:08.113Z,195.80
2018-11-23T00:53:38.032Z,201.63
2018-11-23T00:56:08.011Z,203.13
2018-11-23T00:58:38.116Z,214.20
2018-11-23T01:01:08.469Z,204.80
2018-11-23T01:03:38.270Z,223.80
2018-11-23T01:06:08.650Z,221.93
2018-11-23T01:08:39.053Z,237.23
2018-11-23T01:11:09.115Z,218.20
2018-11-23T01:13:39.225Z,209.70
2018-11-23T01:16:09.912Z,219.13
2018-11-23T01:18:40.011Z,209.17
2018-11-23T01:21:10.075Z,213.40
2018-11-23T01:23:39.926Z,205.03
2018-11-23T01:26:10.480Z,220.20
2018-11-23T01:28:40.633Z,254.47
2018-11-23T01:31:10.571Z,329.63
2018-11-23T01:33:40.845Z,304.10
2018-11-23T01:36:10.875Z,253.93
2018-11-23T01:38:41.001Z,244.03
2018-11-23T01:41:11.038Z,223.23
2018-11-23T01:43:41.125Z,273.00
2018-11-23T01:46:11.190Z,239.37
2018-11-23T01:48:40.970Z,222.40
2018-11-23T01:51:11.350Z,225.87
2018-11-23T01:53:41.120Z,224.33
2018-11-23T01:56:11.524Z,217.27
2018-11-23T01:58:41.273Z,212.13
2018-11-23T02:01:11.451Z,226.30
2018-11-23T02:03:41.433Z,225.70
2018-11-23T02:06:11.629Z,215.10
2018-11-23T02:08:41.428Z,246.27
2018-11-23T02:11:11.732Z,268.60
2018-11-23T02:13:41.521Z,259.63
2018-11-23T02:16:11.511Z,250.90
2018-11-23T02:18:41.258Z,260.87
2018-11-23T02:21:11.523Z,258.77
2018-11-23T02:23:41.766Z,259.63
2018-11-23T02:26:11.919Z,262.93
2018-11-23T02:28:41.632Z,256.00
2018-11-23T02:31:11.996Z,254.40
2018-11-23T02:33:41.889Z,260.13
2018-11-23T02:36:12.474Z,274.07
2018-11-23T02:38:42.325Z,282.33
2018-11-23T02:41:12.321Z,281.40
2018-11-23T02:43:42.719Z,290.60
2018-11-23T02:46:12.785Z,298.70
2018-11-23T02:48:43.379Z,292.27
2018-11-23T02:51:13.602Z,295.43
2018-11-23T02:53:43.751Z,292.43
2018-11-23T02:56:14.416Z,294.40
2018-11-23T02:58:44.636Z,294.27
2018-11-23T03:01:15.201Z,290.10
2018-11-23T03:03:45.438Z,282.53
2018-11-23T03:06:16.778Z,283.63
2018-11-23T03:08:46.403Z,277.33
2018-11-23T03:11:16.469Z,276.53
2018-11-23T03:13:46.121Z,275.20
2018-11-23T03:16:16.311Z,278.57
2018-11-23T03:18:46.078Z,284.07
2018-11-23T03:21:16.298Z,292.20
2018-11-23T03:23:46.608Z,286.00
2018-11-23T03:26:16.225Z,293.53
2018-11-23T03:28:46.346Z,299.13
2018-11-23T03:31:16.041Z,295.77
2018-11-23T03:33:46.068Z,289.17
2018-11-23T03:36:16.199Z,280.73
2018-11-23T03:38:46.481Z,279.97
2018-11-23T03:41:16.353Z,287.47
2018-11-23T03:43:46.553Z,292.50
2018-11-23T03:46:16.359Z,288.77
2018-11-23T03:48:46.396Z,283.83
2018-11-23T03:51:16.411Z,285.00
2018-11-23T03:53:46.778Z,283.27
2018-11-23T03:56:16.727Z,279.90
2018-11-23T03:58:47.040Z,283.43
2018-11-23T04:01:17.127Z,281.03
2018-11-23T04:03:47.196Z,274.07
2018-11-23T04:06:16.805Z,275.00
2018-11-23T04:08:47.128Z,283.73
2018-11-23T04:11:17.122Z,269.50
2018-11-23T04:13:47.365Z,274.80
2018-11-23T04:16:17.475Z,263.73
2018-11-23T04:18:47.707Z,278.13
2018-11-23T04:21:17.837Z,274.20
2018-11-23T04:23:47.633Z,277.07
2018-11-23T04:26:24.362Z,266.00
2018-11-23T04:28:48.004Z,244.83
2018-11-23T04:31:18.204Z,266.50
2018-11-23T04:33:48.495Z,237.47
2018-11-23T04:36:19.288Z,216.70
2018-11-23T04:38:49.186Z,189.73
2018-11-23T04:41:19.291Z,165.87
2018-11-23T04:43:49.759Z,168.77
2018-11-23T04:46:19.642Z,156.20
2018-11-23T04:48:49.602Z,155.50
2018-11-23T04:51:19.434Z,135.70
2018-11-23T04:53:49.471Z,143.60
2018-11-23T04:56:19.714Z,134.67
2018-11-23T04:58:50.001Z,148.30
2018-11-23T05:01:20.037Z,143.77
2018-11-23T05:03:50.487Z,133.87
2018-11-23T05:06:20.806Z,113.70
2018-11-23T05:08:50.592Z,99.80
2018-11-23T05:11:21.161Z,85.73
2018-11-23T05:13:51.147Z,78.27
2018-11-23T05:16:21.040Z,72.60
2018-11-23T05:18:50.968Z,63.40
2018-11-23T05:21:20.996Z,62.60
2018-11-23T05:23:50.716Z,63.20
2018-11-23T05:26:21.114Z,58.73
2018-11-23T05:28:51.043Z,58.50
2018-11-23T05:31:21.277Z,62.20
2018-11-23T05:33:51.387Z,61.23
2018-11-23T05:36:21.803Z,56.87
2018-11-23T05:38:51.852Z,56.63
2018-11-23T05:41:22.074Z,58.97
2018-11-23T05:43:52.381Z,65.00
2018-11-23T05:46:22.795Z,57.60
2018-11-23T05:48:52.757Z,55.80
2018-11-23T05:51:22.716Z,54.57
2018-11-23T05:53:52.959Z,58.17
2018-11-23T05:56:23.043Z,62.03
2018-11-23T05:58:53.120Z,63.93
2018-11-23T06:01:23.207Z,62.00
2018-11-23T06:03:53.225Z,65.03
2018-11-23T06:06:23.237Z,65.23
2018-11-23T06:08:53.282Z,62.70
2018-11-23T06:11:23.487Z,66.07
2018-11-23T06:13:53.592Z,68.97
2018-11-23T06:16:23.555Z,65.97
2018-11-23T06:18:54.077Z,66.67
2018-11-23T06:21:24.264Z,70.57
2018-11-23T06:23:54.567Z,73.27
2018-11-23T06:26:24.793Z,70.47
2018-11-23T06:28:54.718Z,70.07
2018-11-23T06:31:24.548Z,73.05
2018-11-23T06:33:54.879Z,78.10
2018-11-23T06:36:24.884Z,76.77
2018-11-23T06:38:54.993Z,71.73
2018-11-23T06:41:25.003Z,72.33
2018-11-23T06:43:55.195Z,69.10
2018-11-23T06:46:25.272Z,71.70
2018-11-23T06:48:55.682Z,68.50
2018-11-23T06:51:25.801Z,66.80
2018-11-23T06:53:56.003Z,68.87
2018-11-23T06:56:26.554Z,70.77
2018-11-23T06:58:56.957Z,75.40
2018-11-23T07:01:27.482Z,77.50
2018-11-23T07:03:57.516Z,74.20
2018-11-23T07:06:27.315Z,75.40
2018-11-23T07:08:57.275Z,75.97
2018-11-23T07:11:27.162Z,74.30
2018-11-23T07:14:03.746Z,74.27
2018-11-23T07:16:28.480Z,74.53
2018-11-23T07:18:58.553Z,78.47
2018-11-23T07:21:28.633Z,75.87
2018-11-23T07:23:59.154Z,71.77
2018-11-23T07:26:28.999Z,73.40
2018-11-23T07:28:58.718Z,71.97
2018-11-23T07:31:29.044Z,68.60
2018-11-23T07:33:59.038Z,68.53
2018-11-23T07:36:29.116Z,63.27
2018-11-23T07:38:59.206Z,68.80
2018-11-23T07:41:29.275Z,63.10
2018-11-23T07:43:59.113Z,69.07
2018-11-23T07:46:29.358Z,77.43
2018-11-23T07:48:59.222Z,72.07
2018-11-23T07:51:29.066Z,73.57
2018-11-23T07:53:59.083Z,72.67
2018-11-23T07:56:29.044Z,83.67
2018-11-23T07:58:59.636Z,92.23
2018-11-23T08:01:29.595Z,164.23
2018-11-23T08:03:59.673Z,311.25
2018-11-23T08:06:29.439Z,62.53
2018-11-23T08:08:59.834Z,77.23
2018-11-23T08:11:29.682Z,65.60
2018-11-23T08:13:59.724Z,59.37
2018-11-23T08:16:29.761Z,59.20
2018-11-23T08:19:00.314Z,57.30
2018-11-23T08:21:30.309Z,58.47
2018-11-23T08:24:00.118Z,60.60
2018-11-23T08:26:30.070Z,59.20
2018-11-23T08:29:00.155Z,58.63
2018-11-23T08:31:30.354Z,61.47
2018-11-23T08:34:00.640Z,61.60
2018-11-23T08:36:30.719Z,60.33
2018-11-23T08:39:04.707Z,59.87
2018-11-23T08:41:31.954Z,57.57
2018-11-23T08:44:02.112Z,64.50
2018-11-23T08:46:31.892Z,58.73
2018-11-23T08:49:01.888Z,58.33
2018-11-23T08:51:31.717Z,61.37
2018-11-23T08:54:01.959Z,60.13
2018-11-23T08:56:31.680Z,59.83
2018-11-23T08:59:02.083Z,58.93
2018-11-23T09:01:31.834Z,59.37
2018-11-23T09:04:02.024Z,60.97
2018-11-23T09:06:31.997Z,60.93
2018-11-23T09:09:02.053Z,60.40
2018-11-23T09:11:31.971Z,63.53
2018-11-23T09:14:02.233Z,63.03
2018-11-23T09:16:32.126Z,62.63
2018-11-23T09:19:02.098Z,62.43
2018-11-23T09:21:32.232Z,60.00
2018-11-23T09:24:02.250Z,61.10
2018-11-23T09:26:32.270Z,64.33
2018-11-23T09:29:01.875Z,59.57
2018-11-23T09:31:32.209Z,59.27
2018-11-23T09:34:01.676Z,59.97
2018-11-23T09:36:31.687Z,61.77
2018-11-23T09:39:01.754Z,66.90
2018-11-23T09:41:32.163Z,66.57
2018-11-23T09:44:01.894Z,75.93
2018-11-23T09:46:31.882Z,78.37
2018-11-23T09:49:02.234Z,260.37
2018-11-23T09:51:32.823Z,99.20
2018-11-23T09:54:02.671Z,76.27
2018-11-23T09:56:32.480Z,79.13
2018-11-23T09:59:02.182Z,78.57
2018-11-23T10:01:32.165Z,86.97
2018-11-23T10:04:01.813Z,95.30
2018-11-23T10:06:32.028Z,85.37
2018-11-23T10:09:02.480Z,63.70
2018-11-23T10:11:32.354Z,64.73
2018-11-23T10:14:02.280Z,64.20
2018-11-23T10:16:33.435Z,65.33
2018-11-23T10:19:04.960Z,67.17
2018-11-23T10:21:34.520Z,63.73
2018-11-23T10:24:04.390Z,66.07
2018-11-23T10:26:34.440Z,67.57
2018-11-23T10:29:04.446Z,64.30
2018-11-23T10:31:35.104Z,99.97
2018-11-23T10:34:05.110Z,69.37
2018-11-23T10:36:34.991Z,67.00
2018-11-23T10:39:04.464Z,76.97
2018-11-23T10:41:34.921Z,68.60
2018-11-23T10:44:04.287Z,69.07
2018-11-23T10:46:34.153Z,63.93
2018-11-23T10:49:04.037Z,115.70
2018-11-23T10:51:34.072Z,131.80
2018-11-23T10:54:04.829Z,106.13
2018-11-23T10:56:34.919Z,109.00
2018-11-23T10:59:04.962Z,368.10
2018-11-23T11:01:35.357Z,564.57
2018-11-23T11:04:04.721Z,280.37
2018-11-23T11:06:35.153Z,255.00
2018-11-23T11:09:04.939Z,180.63
2018-11-23T11:11:34.635Z,241.57
2018-11-23T11:14:04.250Z,189.90
2018-11-23T11:16:35.802Z,136.53
2018-11-23T11:19:05.303Z,129.57
2018-11-23T11:21:35.600Z,147.97
2018-11-23T11:24:05.833Z,140.13
2018-11-23T11:26:36.510Z,129.73
2018-11-23T11:29:06.624Z,125.27
2018-11-23T11:31:37.287Z,119.53
2018-11-23T11:34:07.165Z,121.53
2018-11-23T11:36:37.908Z,126.33
2018-11-23T11:39:08.486Z,113.80
2018-11-23T11:41:38.921Z,114.33
2018-11-23T11:44:09.174Z,112.33
2018-11-23T11:46:38.991Z,113.10
2018-11-23T11:49:09.075Z,117.43
2018-11-23T11:51:39.233Z,131.13
2018-11-23T11:54:09.672Z,102.90
2018-11-23T11:56:40.889Z,95.50
2018-11-23T11:59:11.122Z,91.37
2018-11-23T12:01:41.149Z,98.80
2018-11-23T12:04:11.879Z,103.77
2018-11-23T12:06:41.442Z,100.43
2018-11-23T12:09:11.844Z,111.33
2018-11-23T12:11:42.556Z,105.83
2018-11-23T12:14:13.436Z,119.43
2018-11-23T12:16:43.678Z,127.63
2018-11-23T12:19:14.248Z,120.83
2018-11-23T12:21:44.465Z,129.07
2018-11-23T12:24:15.040Z,119.00
2018-11-23T12:26:45.319Z,96.60
2018-11-23T12:29:15.991Z,98.73
2018-11-23T12:31:46.565Z,106.37
2018-11-23T12:34:16.804Z,108.63
2018-11-23T12:36:46.712Z,106.20
2018-11-23T12:39:17.436Z,105.33
2018-11-23T12:41:47.627Z,101.47
2018-11-23T12:44:18.024Z,106.87
2018-11-23T12:46:48.316Z,112.23
2018-11-23T12:49:18.838Z,114.30
2018-11-23T12:51:49.436Z,105.10
2018-11-23T12:54:19.559Z,107.10
2018-11-23T12:56:49.916Z,99.47
2018-11-23T12:59:19.997Z,105.10
2018-11-23T13:01:50.343Z,101.07
2018-11-23T13:04:20.544Z,116.00
2018-11-23T13:06:50.604Z,113.00
2018-11-23T13:09:20.702Z,110.17
2018-11-23T13:11:51.325Z,102.47
2018-11-23T13:14:21.445Z,110.27
2018-11-23T13:16:53.312Z,113.73
2018-11-23T13:19:22.878Z,115.67
2018-11-23T13:21:53.038Z,103.93
2018-11-23T13:24:24.007Z,105.10
2018-11-23T13:26:55.000Z,105.60
2018-11-23T13:29:24.511Z,105.70
2018-11-23T13:31:54.879Z,105.73
2018-11-23T13:34:25.006Z,113.63
2018-11-23T13:36:55.082Z,108.37
2018-11-23T13:39:24.764Z,107.63
2018-11-23T13:41:55.203Z,105.60
2018-11-23T13:44:24.895Z,103.73
2018-11-23T13:46:55.077Z,107.60
2018-11-23T13:49:25.392Z,126.83
2018-11-23T13:51:55.513Z,119.60
2018-11-23T13:54:25.394Z,123.57
2018-11-23T13:57:00.789Z,116.43
2018-11-23T13:59:36.885Z,118.90
2018-11-23T14:02:14.301Z,126.87
2018-11-23T14:04:51.166Z,123.47
2018-11-23T14:07:23.757Z,126.47
2018-11-23T14:09:58.403Z,123.47
2018-11-23T14:12:36.299Z,128.00
2018-11-23T14:15:11.429Z,139.50
2018-11-23T14:17:46.348Z,138.37
2018-11-23T14:20:22.484Z,134.60
2018-11-23T14:22:54.637Z,130.83
2018-11-23T14:25:24.879Z,133.50
2018-11-23T14:27:55.635Z,139.13
2018-11-23T14:30:26.345Z,142.70
2018-11-23T14:32:56.999Z,137.27
2018-11-23T14:35:26.767Z,146.67
2018-11-23T14:37:58.118Z,149.97
2018-11-23T14:40:28.088Z,147.33
2018-11-23T14:42:58.714Z,139.53
2018-11-23T14:45:30.562Z,140.97
2018-11-23T14:48:06.347Z,133.07
2018-11-23T14:50:42.038Z,142.60
2018-11-23T14:55:57.513Z,139.40
2018-11-23T14:58:33.922Z,139.90
2018-11-23T15:01:08.997Z,141.17
2018-11-23T15:03:47.276Z,141.67
2018-11-23T15:06:22.841Z,134.93
2018-11-23T15:08:59.207Z,139.10
2018-11-23T15:11:34.106Z,128.30
2018-11-23T15:14:04.926Z,126.83
2018-11-23T15:16:34.915Z,129.23
2018-11-23T15:19:05.243Z,123.27
2018-11-23T15:24:20.048Z,116.63
2018-11-23T15:26:50.684Z,118.20
2018-11-23T15:29:21.033Z,118.23
2018-11-23T15:31:51.444Z,119.50
2018-11-23T15:34:21.520Z,130.73
2018-11-23T15:36:51.403Z,121.60
2018-11-23T15:39:21.921Z,119.57
2018-11-23T15:41:52.001Z,126.30
2018-11-23T15:44:21.526Z,126.23
2018-11-23T15:46:55.197Z,129.33
2018-11-23T15:49:32.885Z,133.33
2018-11-23T15:52:03.569Z,137.47
2018-11-23T15:54:34.450Z,137.33
2018-11-23T15:57:10.643Z,146.70
2018-11-23T15:59:49.076Z,145.47
2018-11-23T16:02:25.232Z,144.93
2018-11-23T16:10:18.284Z,138.57
2018-11-23T16:12:54.997Z,134.67
2018-11-23T16:15:31.835Z,136.80
2018-11-23T16:18:06.236Z,145.80
2018-11-23T16:20:42.290Z,134.00
2018-11-23T16:23:19.225Z,136.37
2018-11-23T16:25:55.405Z,135.97
2018-11-23T16:28:26.803Z,137.17
2018-11-23T16:30:56.946Z,142.43
2018-11-23T16:33:27.477Z,146.33
2018-11-23T16:35:57.560Z,139.70
2018-11-23T16:38:27.601Z,146.67
2018-11-23T16:40:57.915Z,162.43
2018-11-23T16:43:28.042Z,151.73
2018-11-23T16:45:58.121Z,145.47
2018-11-23T16:48:28.593Z,140.97
2018-11-23T16:50:58.719Z,139.73
2018-11-23T16:53:28.803Z,138.93
2018-11-23T16:55:59.185Z,147.97
2018-11-23T16:58:29.270Z,145.37
2018-11-23T17:00:59.624Z,141.10
2018-11-23T17:03:29.637Z,172.83
2018-11-23T17:05:59.704Z,167.40
2018-11-23T17:08:39.659Z,158.10
2018-11-23T17:11:15.356Z,151.97
2018-11-23T17:13:50.943Z,175.47
2018-11-23T17:16:28.424Z,169.53
2018-11-23T17:19:05.489Z,153.50
2018-11-23T17:21:41.323Z,159.17
2018-11-23T17:24:18.325Z,182.77
2018-11-23T17:32:21.187Z,168.50
2018-11-23T17:34:57.922Z,178.77
2018-11-23T17:37:36.598Z,199.37
2018-11-23T17:40:08.475Z,190.53
2018-11-23T17:42:45.676Z,198.67
2018-11-23T17:45:21.217Z,212.87
2018-11-23T17:47:58.836Z,281.93
2018-11-23T17:50:34.926Z,206.27
2018-11-23T17:53:13.268Z,204.17
2018-11-23T17:55:50.314Z,188.70
2018-11-23T17:58:28.944Z,180.07
2018-11-23T18:01:04.836Z,184.57
2018-11-23T18:06:19.400Z,159.40
2018-11-23T18:08:57.996Z,168.10
2018-11-23T18:11:32.754Z,165.47
2018-11-23T18:14:12.045Z,169.80
2018-11-23T18:16:49.226Z,190.03
2018-11-23T18:19:27.861Z,204.27
2018-11-23T18:22:05.247Z,206.07
2018-11-23T18:24:43.510Z,174.03
2018-11-23T18:27:20.314Z,186.23
2018-11-23T18:29:58.353Z,177.07
2018-11-23T18:32:33.652Z,164.30
2018-11-23T18:35:11.600Z,165.57
2018-11-23T18:40:26.085Z,174.33
2018-11-23T18:43:00.433Z,159.47
2018-11-23T18:45:31.773Z,157.47
2018-11-23T18:48:04.103Z,165.93
2018-11-23T18:50:37.306Z,168.90
2018-11-23T18:53:10.798Z,157.90
2018-11-23T18:55:44.204Z,153.23
2018-11-23T18:58:14.553Z,160.70
2018-11-23T19:00:44.925Z,154.97
2018-11-23T19:03:15.585Z,156.47
2018-11-23T19:05:45.954Z,158.50
2018-11-23T19:08:16.033Z,158.63
2018-11-23T19:10:48.599Z,152.80
2018-11-23T19:13:19.697Z,157.40
2018-11-23T19:15:49.642Z,152.57
2018-11-23T19:18:20.208Z,155.07
2018-11-23T19:20:55.045Z,156.73
2018-11-23T19:23:25.050Z,158.73
2018-11-23T19:25:55.877Z,163.00
2018-11-23T19:28:25.681Z,157.87
2018-11-23T19:30:56.104Z,158.83
2018-11-23T19:33:26.035Z,149.20
2018-11-23T19:35:56.161Z,151.10
2018-11-23T19:38:26.552Z,148.90
2018-11-23T19:40:56.442Z,154.80
2018-11-23T19:43:26.286Z,153.23
2018-11-23T19:45:56.042Z,145.13
2018-11-23T19:48:26.233Z,145.83
2018-11-23T19:50:56.127Z,149.27
2018-11-23T19:53:26.993Z,153.90
2018-11-23T19:55:57.162Z,154.50
2018-11-23T19:58:27.355Z,154.83
2018-11-23T20:00:57.606Z,155.60
2018-11-23T20:03:27.666Z,156.47
2018-11-23T20:05:58.005Z,153.47
2018-11-23T20:08:27.722Z,150.60
2018-11-23T20:10:58.003Z,155.73
2018-11-23T20:13:27.719Z,157.10
2018-11-23T20:16:00.091Z,171.87
2018-11-23T20:18:29.715Z,156.90
2018-11-23T20:20:59.712Z,151.47
2018-11-23T20:23:30.556Z,150.77
2018-11-23T20:26:00.633Z,150.37
2018-11-23T20:28:30.468Z,139.47
2018-11-23T20:31:00.633Z,156.63
2018-11-23T20:33:30.717Z,150.93
2018-11-23T20:36:00.955Z,150.50
2018-11-23T20:38:31.074Z,148.93
2018-11-23T20:41:01.282Z,163.90
2018-11-23T20:43:32.153Z,152.10
2018-11-23T20:46:02.350Z,150.73
2018-11-23T20:48:32.360Z,148.97
2018-11-23T20:51:02.191Z,148.43
2018-11-23T20:53:32.211Z,144.33
2018-11-23T20:56:02.920Z,144.53
2018-11-23T20:58:32.754Z,141.60
2018-11-23T21:01:02.759Z,145.83
2018-11-23T21:03:33.146Z,140.40
2018-11-23T21:06:04.159Z,140.40
2018-11-23T21:08:33.918Z,147.30
2018-11-23T21:11:03.724Z,140.67
2018-11-23T21:13:33.569Z,144.47
2018-11-23T21:16:03.761Z,142.50
2018-11-23T21:18:33.283Z,143.40
2018-11-23T21:21:04.836Z,138.60
2018-11-23T21:23:34.876Z,137.07
2018-11-23T21:26:04.561Z,134.10
2018-11-23T21:28:33.917Z,135.10
2018-11-23T21:31:05.397Z,136.47
2018-11-23T21:33:34.726Z,134.93
2018-11-23T21:36:04.755Z,130.33
2018-11-23T21:38:34.449Z,133.30
2018-11-23T21:41:04.361Z,131.47
2018-11-23T21:43:33.861Z,136.93
2018-11-23T21:46:05.281Z,134.33
2018-11-23T21:48:34.926Z,138.60
2018-11-23T21:51:04.968Z,143.30
2018-11-23T21:53:34.404Z,138.67
2018-11-23T21:56:09.659Z,135.73
2018-11-23T21:58:39.070Z,141.80
2018-11-23T22:01:08.759Z,153.00
2018-11-23T22:03:38.642Z,146.63
2018-11-23T22:06:08.026Z,145.10
2018-11-23T22:08:37.945Z,143.47
2018-11-23T22:11:08.156Z,137.10
2018-11-23T22:13:38.584Z,130.50
2018-11-23T22:16:09.092Z,136.10
2018-11-23T22:18:39.246Z,133.43
2018-11-23T22:21:09.245Z,137.40
2018-11-23T22:23:39.519Z,142.63
2018-11-23T22:26:09.380Z,138.23
2018-11-23T22:28:39.678Z,139.17
2018-11-23T22:31:10.727Z,139.10
2018-11-23T22:33:40.840Z,138.90
2018-11-23T22:36:10.495Z,141.57
2018-11-23T22:38:40.688Z,141.20
2018-11-23T22:41:10.478Z,140.57
2018-11-23T22:43:40.204Z,144.30
2018-11-23T22:46:10.625Z,147.07
2018-11-23T22:48:40.993Z,146.60
2018-11-23T22:51:11.393Z,146.13
2018-11-23T22:53:41.484Z,152.40
2018-11-23T22:56:11.600Z,154.77
2018-11-23T22:58:41.275Z,151.40
2018-11-23T23:01:11.484Z,154.47
2018-11-23T23:03:41.583Z,152.63
2018-11-23T23:06:12.162Z,143.27
2018-11-23T23:08:42.602Z,144.10
2018-11-23T23:11:12.671Z,150.50
2018-11-23T23:13:43.053Z,144.43
2018-11-23T23:16:13.185Z,151.60
2018-11-23T23:18:43.117Z,163.00
2018-11-23T23:21:13.304Z,165.97
2018-11-23T23:23:43.380Z,151.70
2018-11-23T23:26:14.108Z,141.50
2018-11-23T23:28:44.169Z,139.93
2018-11-23T23:31:14.551Z,136.40
2018-11-23T23:33:44.664Z,138.77
2018-11-23T23:36:15.042Z,138.73
2018-11-23T23:38:45.446Z,139.97
2018-11-23T23:41:15.525Z,139.97
2018-11-23T23:43:46.235Z,148.00
2018-11-23T23:46:16.153Z,141.20
2018-11-23T23:48:46.718Z,138.27
2018-11-23T23:51:18.077Z,141.47
2018-11-23T23:53:48.808Z,144.67
2018-11-23T23:56:19.311Z,150.03
2018-11-23T23:58:49.761Z,143.93
